createdAt,value
2023-05-22T00:00:19.577Z,100427.50
2023-05-22T00:03:08.960Z,100433.81
2023-05-22T00:05:41.559Z,100435.13
2023-05-22T00:08:13.167Z,100437.25
2023-05-22T00:10:41.395Z,100435.78
2023-05-22T00:13:09.957Z,100438.25
2023-05-22T00:15:38.001Z,100452.38
2023-05-22T00:18:06.778Z,100443.66
2023-05-22T00:20:39.533Z,100447.38
2023-05-22T00:23:11.138Z,100439.22
2023-05-22T00:25:40.976Z,100441.75
2023-05-22T00:28:09.586Z,100451.81
2023-05-22T00:30:38.597Z,100454.91
2023-05-22T00:33:07.871Z,100445.81
2023-05-22T00:35:36.179Z,100439.22
2023-05-22T00:38:06.647Z,100442.13
2023-05-22T00:40:34.877Z,100440.66
2023-05-22T00:43:08.911Z,100447.25
2023-05-22T00:45:37.888Z,100441.41
2023-05-22T00:48:09.892Z,100443.25
2023-05-22T00:50:38.404Z,100447.19
2023-05-22T00:53:08.758Z,100446.78
2023-05-22T00:55:37.360Z,100439.44
2023-05-22T00:58:08.097Z,100442.53
2023-05-22T01:00:37.848Z,100438.97
2023-05-22T01:03:10.112Z,100434.53
2023-05-22T01:05:39.909Z,100452.13
2023-05-22T01:08:09.743Z,100443.28
2023-05-22T01:10:40.448Z,100441.50
2023-05-22T01:13:29.864Z,100442.88
2023-05-22T01:16:23.428Z,100439.28
2023-05-22T01:19:03.253Z,100436.19
2023-05-22T01:21:52.715Z,100437.16
2023-05-22T01:24:21.212Z,100427.81
2023-05-22T01:27:07.905Z,100430.13
2023-05-22T01:29:55.445Z,100428.56
2023-05-22T01:32:26.239Z,100427.88
2023-05-22T01:34:59.868Z,100427.34
2023-05-22T01:37:28.329Z,100422.47
2023-05-22T01:39:57.557Z,100422.75
2023-05-22T01:42:26.265Z,100425.88
2023-05-22T01:44:55.377Z,100430.13
2023-05-22T01:47:23.782Z,100429.78
2023-05-22T01:49:53.728Z,100426.81
2023-05-22T01:52:37.457Z,100433.56
2023-05-22T01:55:27.858Z,100429.78
2023-05-22T01:58:03.902Z,100437.38
2023-05-22T02:00:33.795Z,100429.00
2023-05-22T02:03:10.404Z,100428.88
2023-05-22T02:05:40.217Z,100426.41
2023-05-22T02:08:09.100Z,100431.13
2023-05-22T02:10:43.022Z,100426.78
2023-05-22T02:13:11.925Z,100426.06
2023-05-22T02:15:40.765Z,100422.09
2023-05-22T02:18:15.709Z,100421.88
2023-05-22T02:20:46.940Z,100420.88
2023-05-22T02:23:15.197Z,100415.22
2023-05-22T02:25:43.729Z,100412.94
2023-05-22T02:28:11.808Z,100412.44
2023-05-22T02:30:40.793Z,100413.63
2023-05-22T02:33:09.615Z,100410.53
2023-05-22T02:35:38.213Z,100408.19
2023-05-22T02:38:06.772Z,100406.78
2023-05-22T02:40:35.462Z,100407.00
2023-05-22T02:43:04.877Z,100408.53
2023-05-22T02:45:33.657Z,100411.13
2023-05-22T02:48:03.858Z,100409.25
2023-05-22T02:50:34.394Z,100407.19
2023-05-22T02:53:02.564Z,100409.22
2023-05-22T02:55:31.408Z,100413.53
2023-05-22T02:57:59.570Z,100405.22
2023-05-22T03:00:28.033Z,100405.97
2023-05-22T03:02:57.128Z,100407.19
2023-05-22T03:05:25.900Z,100399.56
2023-05-22T03:07:54.013Z,100406.53
2023-05-22T03:10:23.143Z,100405.47
2023-05-22T03:12:54.415Z,100396.41
2023-05-22T03:15:22.698Z,100398.50
2023-05-22T03:17:54.792Z,100395.34
2023-05-22T03:20:23.436Z,100399.72
2023-05-22T03:22:51.599Z,100411.44
2023-05-22T03:25:21.759Z,100405.81
2023-05-22T03:27:49.785Z,100407.28
2023-05-22T03:30:18.190Z,100405.31
2023-05-22T03:32:56.957Z,100401.41
2023-05-22T03:35:25.892Z,100394.47
2023-05-22T03:37:53.963Z,100407.66
2023-05-22T03:40:22.463Z,100416.28
2023-05-22T03:42:50.635Z,100401.44
2023-05-22T03:45:19.646Z,100406.88
2023-05-22T03:47:48.832Z,100413.56
2023-05-22T03:50:17.126Z,100418.25
2023-05-22T03:52:46.706Z,100421.03
2023-05-22T03:55:15.137Z,100414.09
2023-05-22T03:57:43.041Z,100420.09
2023-05-22T04:00:12.978Z,100427.22
2023-05-22T04:02:45.572Z,100425.25
2023-05-22T04:05:14.994Z,100418.50
2023-05-22T04:07:43.107Z,100422.78
2023-05-22T04:10:11.936Z,100426.81
2023-05-22T04:12:39.891Z,100427.97
2023-05-22T04:15:09.349Z,100433.50
2023-05-22T04:17:40.150Z,100434.63
2023-05-22T04:20:09.070Z,100437.28
2023-05-22T04:22:37.079Z,100427.16
2023-05-22T04:25:05.742Z,100428.34
2023-05-22T04:27:34.549Z,100434.59
2023-05-22T04:30:03.902Z,100436.16
2023-05-22T04:32:31.892Z,100441.59
2023-05-22T04:35:00.802Z,100438.50
2023-05-22T04:37:32.059Z,100440.53
2023-05-22T04:40:06.474Z,100440.13
2023-05-22T04:42:35.064Z,100441.59
2023-05-22T04:45:06.066Z,100441.47
2023-05-22T04:47:34.148Z,100447.78
2023-05-22T04:50:07.572Z,100450.38
2023-05-22T04:52:36.477Z,100451.31
2023-05-22T04:55:07.033Z,100445.81
2023-05-22T04:57:34.967Z,100451.63
2023-05-22T05:00:05.694Z,100451.91
2023-05-22T05:02:35.750Z,100441.03
2023-05-22T05:05:04.616Z,100446.50
2023-05-22T05:07:32.562Z,100449.16
2023-05-22T05:10:01.169Z,100445.47
2023-05-22T05:12:29.147Z,100438.50
2023-05-22T05:14:57.571Z,100453.91
2023-05-22T05:17:25.409Z,100447.09
2023-05-22T05:19:54.032Z,100447.63
2023-05-22T05:22:21.968Z,100450.31
2023-05-22T05:24:50.437Z,100451.41
2023-05-22T05:27:18.429Z,100446.19
2023-05-22T05:29:46.939Z,100445.50
2023-05-22T05:32:28.478Z,100444.47
2023-05-22T05:35:03.877Z,100448.97
2023-05-22T05:38:02.109Z,100451.03
2023-05-22T05:40:31.609Z,100447.75
2023-05-22T05:42:59.587Z,100445.75
2023-05-22T05:45:28.139Z,100452.84
2023-05-22T05:47:56.186Z,100445.69
2023-05-22T05:50:25.902Z,100449.81
2023-05-22T05:52:54.909Z,100453.03
2023-05-22T05:55:23.715Z,100460.47
2023-05-22T05:57:52.525Z,100456.63
2023-05-22T06:00:27.917Z,100454.38
2023-05-22T06:02:56.675Z,100453.03
2023-05-22T06:05:35.497Z,100452.38
2023-05-22T06:08:15.793Z,100458.75
2023-05-22T06:10:44.097Z,100462.41
2023-05-22T06:13:14.929Z,100461.16
2023-05-22T06:15:43.112Z,100461.75
2023-05-22T06:18:11.306Z,100466.66
2023-05-22T06:20:40.914Z,100470.94
2023-05-22T06:23:09.083Z,100466.91
2023-05-22T06:25:39.873Z,100467.47
2023-05-22T06:28:07.842Z,100470.09
2023-05-22T06:30:43.619Z,100471.25
2023-05-22T06:33:16.110Z,100470.53
2023-05-22T06:35:44.474Z,100472.06
2023-05-22T06:38:12.734Z,100471.53
2023-05-22T06:40:43.066Z,100468.78
2023-05-22T06:43:23.915Z,100470.25
2023-05-22T06:45:56.652Z,100471.47
2023-05-22T06:48:24.626Z,100472.94
2023-05-22T06:51:17.140Z,100475.94
2023-05-22T06:53:48.811Z,100474.50
2023-05-22T06:56:22.875Z,100471.88
2023-05-22T06:58:57.570Z,100470.38
2023-05-22T07:01:37.546Z,100466.13
2023-05-22T07:04:12.367Z,100471.38
2023-05-22T07:06:50.204Z,100469.09
2023-05-22T07:09:20.110Z,100471.94
2023-05-22T07:11:50.142Z,100477.19
2023-05-22T07:14:18.464Z,100478.25
2023-05-22T07:16:47.654Z,100472.97
2023-05-22T07:19:21.565Z,100465.25
2023-05-22T07:21:50.030Z,100475.22
2023-05-22T07:24:20.786Z,100472.44
2023-05-22T07:26:49.806Z,100476.25
2023-05-22T07:29:18.522Z,100478.09
2023-05-22T07:31:50.548Z,100482.78
2023-05-22T07:34:18.988Z,100481.50
2023-05-22T07:36:47.543Z,100483.88
2023-05-22T07:39:15.622Z,100477.28
2023-05-22T07:41:52.499Z,100480.59
2023-05-22T07:44:23.070Z,100478.59
2023-05-22T07:46:52.329Z,100483.72
2023-05-22T07:49:24.507Z,100476.22
2023-05-22T07:51:53.389Z,100477.13
2023-05-22T07:54:25.155Z,100476.38
2023-05-22T07:56:53.652Z,100475.38
2023-05-22T07:59:25.656Z,100480.47
2023-05-22T08:01:58.488Z,100482.13
2023-05-22T08:04:27.011Z,100479.19
2023-05-22T08:06:55.254Z,100478.50
2023-05-22T08:09:23.218Z,100476.78
2023-05-22T08:11:51.523Z,100471.09
2023-05-22T08:14:19.496Z,100466.41
2023-05-22T08:16:47.828Z,100474.28
2023-05-22T08:19:16.077Z,100459.63
2023-05-22T08:21:44.472Z,100460.78
2023-05-22T08:24:12.505Z,100456.44
2023-05-22T08:26:41.678Z,100458.06
2023-05-22T08:29:09.657Z,100453.69
2023-05-22T08:31:37.958Z,100455.03
2023-05-22T08:34:07.486Z,100456.72
2023-05-22T08:36:35.842Z,100463.41
2023-05-22T08:39:03.948Z,100461.41
2023-05-22T08:41:32.269Z,100460.00
2023-05-22T08:44:00.337Z,100450.34
2023-05-22T08:46:30.520Z,100459.66
2023-05-22T08:48:59.119Z,100460.66
2023-05-22T08:51:33.034Z,100459.03
2023-05-22T08:54:01.478Z,100452.06
2023-05-22T08:56:32.072Z,100459.88
2023-05-22T08:59:01.973Z,100446.97
2023-05-22T09:01:31.542Z,100446.28
2023-05-22T09:04:03.764Z,100448.53
2023-05-22T09:06:32.247Z,100451.34
2023-05-22T09:09:00.209Z,100450.22
2023-05-22T09:11:28.428Z,100455.13
2023-05-22T09:14:22.761Z,100449.44
2023-05-22T09:16:53.229Z,100449.25
2023-05-22T09:19:21.563Z,100445.16
2023-05-22T09:21:51.202Z,100445.41
2023-05-22T09:24:19.151Z,100440.50
2023-05-22T09:26:48.731Z,100446.38
2023-05-22T09:29:16.694Z,100450.09
2023-05-22T09:31:45.281Z,100442.63
2023-05-22T09:34:16.018Z,100439.06
2023-05-22T09:36:44.435Z,100441.69
2023-05-22T09:39:12.589Z,100438.72
2023-05-22T09:41:40.830Z,100439.16
2023-05-22T09:44:16.412Z,100438.28
2023-05-22T09:46:47.286Z,100442.78
2023-05-22T09:49:17.215Z,100438.81
2023-05-22T09:51:49.580Z,100445.19
2023-05-22T09:54:20.728Z,100448.53
2023-05-22T09:56:51.196Z,100452.38
2023-05-22T09:59:27.070Z,100434.03
2023-05-22T10:01:55.930Z,100435.94
2023-05-22T10:04:24.351Z,100436.16
2023-05-22T10:06:54.716Z,100428.69
2023-05-22T10:09:26.366Z,100424.09
2023-05-22T10:11:58.912Z,100429.34
2023-05-22T10:14:28.780Z,100435.38
2023-05-22T10:17:02.517Z,100433.13
2023-05-22T10:19:33.423Z,100427.41
2023-05-22T10:22:02.456Z,100421.16
2023-05-22T10:24:31.927Z,100420.44
2023-05-22T10:27:00.618Z,100421.16
2023-05-22T10:29:41.537Z,100413.47
2023-05-22T10:32:34.550Z,100416.53
2023-05-22T10:35:32.800Z,100421.38
2023-05-22T10:38:35.871Z,100412.31
2023-05-22T10:41:04.886Z,100417.31
2023-05-22T10:43:33.554Z,100408.34
2023-05-22T10:46:05.822Z,100407.91
2023-05-22T10:48:45.844Z,100397.81
2023-05-22T10:51:15.140Z,100406.00
2023-05-22T10:53:45.388Z,100416.38
2023-05-22T10:56:15.905Z,100403.75
2023-05-22T10:58:57.256Z,100407.34
2023-05-22T11:01:28.102Z,100410.41
2023-05-22T11:04:13.077Z,100408.06
2023-05-22T11:06:46.370Z,100407.00
2023-05-22T11:09:24.501Z,100407.22
2023-05-22T11:12:17.471Z,100410.25
2023-05-22T11:14:49.463Z,100407.56
2023-05-22T11:17:21.064Z,100388.31
2023-05-22T11:20:01.538Z,100403.72
2023-05-22T11:22:38.356Z,100400.31
2023-05-22T11:25:18.651Z,100399.88
2023-05-22T11:27:49.928Z,100393.56
2023-05-22T11:30:18.284Z,100391.06
2023-05-22T11:32:48.577Z,100383.13
2023-05-22T11:35:19.281Z,100383.38
2023-05-22T11:37:48.379Z,100383.81
2023-05-22T11:40:21.485Z,100395.88
2023-05-22T11:42:49.392Z,100390.47
2023-05-22T11:45:20.736Z,100382.53
2023-05-22T11:47:49.209Z,100386.69
2023-05-22T11:50:29.193Z,100384.72
2023-05-22T11:53:03.198Z,100384.03
2023-05-22T11:55:33.571Z,100389.03
2023-05-22T11:58:03.054Z,100376.69
2023-05-22T12:00:32.198Z,100377.59
2023-05-22T12:03:00.329Z,100385.13
2023-05-22T12:05:28.777Z,100384.34
2023-05-22T12:07:56.941Z,100370.81
2023-05-22T12:10:26.602Z,100375.19
2023-05-22T12:12:55.336Z,100376.94
2023-05-22T12:15:24.965Z,100376.28
2023-05-22T12:17:55.804Z,100373.53
2023-05-22T12:20:30.846Z,100360.44
2023-05-22T12:22:59.965Z,100368.56
2023-05-22T12:25:37.058Z,100362.94
2023-05-22T12:28:07.194Z,100365.34
2023-05-22T12:30:42.544Z,100373.47
2023-05-22T12:33:17.561Z,100371.66
2023-05-22T12:35:45.818Z,100372.94
2023-05-22T12:38:13.812Z,100358.13
2023-05-22T12:40:42.944Z,100363.13
2023-05-22T12:43:10.905Z,100370.81
2023-05-22T12:45:41.873Z,100360.59
2023-05-22T12:48:10.036Z,100374.78
2023-05-22T12:50:39.041Z,100369.66
2023-05-22T12:53:07.378Z,100368.06
2023-05-22T12:55:36.205Z,100356.88
2023-05-22T12:58:04.589Z,100360.50
2023-05-22T13:00:32.830Z,100357.25
2023-05-22T13:03:01.495Z,100351.47
2023-05-22T13:05:29.931Z,100359.78
2023-05-22T13:07:58.061Z,100357.53
2023-05-22T13:10:26.627Z,100355.78
2023-05-22T13:12:54.569Z,100348.41
2023-05-22T13:15:22.958Z,100344.06
2023-05-22T13:17:51.159Z,100352.16
2023-05-22T13:20:19.473Z,100346.88
2023-05-22T13:22:47.369Z,100342.34
2023-05-22T13:25:15.858Z,100342.38
2023-05-22T13:27:43.827Z,100334.00
2023-05-22T13:30:12.517Z,100342.06
2023-05-22T13:32:40.634Z,100330.31
2023-05-22T13:35:09.556Z,100323.47
2023-05-22T13:37:37.557Z,100327.88
2023-05-22T13:40:06.530Z,100329.50
2023-05-22T13:42:34.574Z,100325.25
2023-05-22T13:45:04.257Z,100318.72
2023-05-22T13:47:32.267Z,100319.94
2023-05-22T13:50:00.679Z,100314.38
2023-05-22T13:52:28.882Z,100310.84
2023-05-22T13:54:57.061Z,100309.84
2023-05-22T13:57:24.929Z,100305.00
2023-05-22T13:59:53.332Z,100292.16
2023-05-22T14:02:21.456Z,100297.81
2023-05-22T14:04:52.109Z,100290.38
2023-05-22T14:07:20.062Z,100288.53
2023-05-22T14:09:48.565Z,100295.16
2023-05-22T14:12:16.504Z,100297.59
2023-05-22T14:14:44.713Z,100295.91
2023-05-22T14:17:12.532Z,100297.41
2023-05-22T14:19:40.822Z,100292.13
2023-05-22T14:22:08.801Z,100283.91
2023-05-22T14:24:37.247Z,100281.47
2023-05-22T14:27:05.515Z,100284.25
2023-05-22T14:29:33.713Z,100285.53
2023-05-22T14:32:07.253Z,100285.06
2023-05-22T14:34:35.639Z,100275.81
2023-05-22T14:37:03.680Z,100271.00
2023-05-22T14:39:32.198Z,100275.19
2023-05-22T14:42:00.049Z,100276.47
2023-05-22T14:44:28.273Z,100277.50
2023-05-22T14:46:56.168Z,100267.00
2023-05-22T14:49:24.514Z,100275.66
2023-05-22T14:51:53.409Z,100266.03
2023-05-22T14:54:24.177Z,100266.63
2023-05-22T14:56:52.150Z,100265.22
2023-05-22T14:59:21.248Z,100256.94
2023-05-22T15:01:50.695Z,100256.06
2023-05-22T15:04:19.307Z,100260.47
2023-05-22T15:06:47.226Z,100248.38
2023-05-22T15:09:15.410Z,100246.06
2023-05-22T15:11:47.034Z,100248.47
2023-05-22T15:14:15.913Z,100252.34
2023-05-22T15:16:43.997Z,100239.91
2023-05-22T15:19:12.541Z,100245.53
2023-05-22T15:21:42.290Z,100241.00
2023-05-22T15:24:10.703Z,100244.06
2023-05-22T15:26:38.649Z,100240.84
2023-05-22T15:29:06.886Z,100240.78
2023-05-22T15:31:34.940Z,100240.59
2023-05-22T15:34:03.478Z,100239.78
2023-05-22T15:36:35.115Z,100241.59
2023-05-22T15:39:03.668Z,100230.72
2023-05-22T15:41:31.476Z,100234.28
2023-05-22T15:43:59.651Z,100232.53
2023-05-22T15:46:27.707Z,100230.91
2023-05-22T15:48:55.960Z,100237.13
2023-05-22T15:51:23.885Z,100228.78
2023-05-22T15:53:52.113Z,100233.00
2023-05-22T15:56:20.028Z,100232.03
2023-05-22T15:58:48.315Z,100222.91
2023-05-22T16:01:16.333Z,100226.75
2023-05-22T16:03:44.764Z,100229.88
2023-05-22T16:06:12.733Z,100230.41
2023-05-22T16:08:42.143Z,100227.25
2023-05-22T16:11:10.093Z,100232.59
2023-05-22T16:13:38.571Z,100225.53
2023-05-22T16:16:06.854Z,100226.13
2023-05-22T16:18:35.207Z,100218.31
2023-05-22T16:21:03.787Z,100228.44
2023-05-22T16:23:31.987Z,100228.38
2023-05-22T16:25:59.876Z,100224.75
2023-05-22T16:28:28.251Z,100227.44
2023-05-22T16:30:56.199Z,100225.41
2023-05-22T16:33:24.605Z,100225.59
2023-05-22T16:35:52.407Z,100225.75
2023-05-22T16:38:20.610Z,100231.84
2023-05-22T16:40:48.643Z,100221.75
2023-05-22T16:43:17.669Z,100238.22
2023-05-22T16:45:47.982Z,100233.22
2023-05-22T16:48:16.634Z,100232.78
2023-05-22T16:50:46.805Z,100234.16
2023-05-22T16:53:17.446Z,100237.06
2023-05-22T16:55:45.762Z,100241.19
2023-05-22T16:58:14.301Z,100245.78
2023-05-22T17:00:42.534Z,100249.06
2023-05-22T17:03:12.252Z,100243.03
2023-05-22T17:05:40.700Z,100245.47
2023-05-22T17:08:09.270Z,100254.72
2023-05-22T17:10:37.518Z,100249.91
2023-05-22T17:13:05.929Z,100252.22
2023-05-22T17:15:34.228Z,100252.97
2023-05-22T17:18:02.503Z,100252.50
2023-05-22T17:20:32.958Z,100257.88
2023-05-22T17:23:01.290Z,100257.47
2023-05-22T17:25:29.224Z,100260.13
2023-05-22T17:27:57.759Z,100270.75
2023-05-22T17:30:25.661Z,100272.00
2023-05-22T17:32:56.098Z,100269.22
2023-05-22T17:35:24.137Z,100277.41
2023-05-22T17:37:53.054Z,100269.97
2023-05-22T17:40:32.630Z,100269.50
2023-05-22T17:43:08.831Z,100273.22
2023-05-22T17:45:37.106Z,100279.84
2023-05-22T17:48:07.487Z,100275.13
2023-05-22T17:50:35.995Z,100281.72
2023-05-22T17:53:04.376Z,100287.13
2023-05-22T17:55:32.305Z,100283.25
2023-05-22T17:58:00.845Z,100294.00
2023-05-22T18:00:28.800Z,100291.91
2023-05-22T18:02:57.102Z,100291.06
2023-05-22T18:05:25.063Z,100296.81
2023-05-22T18:07:53.275Z,100298.19
2023-05-22T18:10:25.327Z,100302.44
2023-05-22T18:12:54.323Z,100304.94
2023-05-22T18:15:22.554Z,100308.25
2023-05-22T18:17:50.924Z,100315.28
2023-05-22T18:20:19.227Z,100319.91
2023-05-22T18:22:47.772Z,100315.28
2023-05-22T18:25:16.038Z,100318.47
2023-05-22T18:27:44.412Z,100318.66
2023-05-22T18:30:13.100Z,100325.25
2023-05-22T18:32:41.374Z,100327.75
2023-05-22T18:35:09.964Z,100330.09
2023-05-22T18:37:38.299Z,100334.91
2023-05-22T18:40:09.431Z,100332.41
2023-05-22T18:42:37.847Z,100335.63
2023-05-22T18:45:07.232Z,100335.81
2023-05-22T18:47:35.595Z,100343.34
2023-05-22T18:50:05.026Z,100338.78
2023-05-22T18:52:33.382Z,100336.44
2023-05-22T18:55:01.323Z,100339.84
2023-05-22T18:57:29.596Z,100340.75
2023-05-22T18:59:57.492Z,100333.38
2023-05-22T19:02:26.352Z,100342.53
2023-05-22T19:04:54.523Z,100350.13
2023-05-22T19:07:22.793Z,100345.94
2023-05-22T19:09:50.863Z,100354.75
2023-05-22T19:12:19.410Z,100356.59
2023-05-22T19:14:48.562Z,100355.09
2023-05-22T19:17:16.996Z,100355.41
2023-05-22T19:19:45.114Z,100357.19
2023-05-22T19:22:14.036Z,100364.72
2023-05-22T19:24:42.966Z,100366.78
2023-05-22T19:27:11.526Z,100368.56
2023-05-22T19:29:39.641Z,100366.16
2023-05-22T19:32:08.144Z,100368.19
2023-05-22T19:34:36.405Z,100369.88
2023-05-22T19:37:08.864Z,100381.78
2023-05-22T19:39:38.322Z,100382.19
2023-05-22T19:42:08.815Z,100387.50
2023-05-22T19:44:37.456Z,100388.09
2023-05-22T19:47:06.073Z,100394.34
2023-05-22T19:49:37.320Z,100391.03
2023-05-22T19:52:06.900Z,100398.19
2023-05-22T19:54:35.886Z,100402.28
2023-05-22T19:57:04.449Z,100401.88
2023-05-22T19:59:35.865Z,100410.28
2023-05-22T20:02:06.142Z,100416.78
2023-05-22T20:04:34.565Z,100420.03
2023-05-22T20:07:04.162Z,100408.47
2023-05-22T20:09:32.304Z,100413.72
2023-05-22T20:12:00.869Z,100413.38
2023-05-22T20:14:29.005Z,100421.25
2023-05-22T20:16:59.120Z,100426.63
2023-05-22T20:19:27.623Z,100425.00
2023-05-22T20:21:58.422Z,100430.13
2023-05-22T20:24:26.521Z,100428.59
2023-05-22T20:26:54.827Z,100426.97
2023-05-22T20:29:22.925Z,100426.53
2023-05-22T20:31:56.115Z,100425.84
2023-05-22T20:34:26.866Z,100432.41
2023-05-22T20:36:55.344Z,100428.22
2023-05-22T20:39:23.704Z,100424.63
2023-05-22T20:41:52.580Z,100423.19
2023-05-22T20:44:24.998Z,100428.56
2023-05-22T20:46:54.251Z,100432.66
2023-05-22T20:49:22.576Z,100423.88
2023-05-22T20:51:51.677Z,100426.69
2023-05-22T20:54:20.056Z,100431.28
2023-05-22T20:56:48.405Z,100426.97
2023-05-22T20:59:16.445Z,100435.59
2023-05-22T21:01:45.519Z,100432.78
2023-05-22T21:04:13.653Z,100439.88
2023-05-22T21:06:41.967Z,100434.56
2023-05-22T21:09:09.983Z,100433.16
2023-05-22T21:11:38.555Z,100434.78
2023-05-22T21:14:06.756Z,100443.00
2023-05-22T21:16:37.611Z,100438.34
2023-05-22T21:19:07.618Z,100436.09
2023-05-22T21:21:41.735Z,100434.63
2023-05-22T21:24:10.189Z,100437.19
2023-05-22T21:26:38.634Z,100438.09
2023-05-22T21:29:06.824Z,100431.66
2023-05-22T21:31:35.847Z,100432.59
2023-05-22T21:34:04.019Z,100433.88
2023-05-22T21:36:32.426Z,100434.97
2023-05-22T21:39:00.620Z,100436.00
2023-05-22T21:41:29.226Z,100431.41
2023-05-22T21:43:57.778Z,100431.47
2023-05-22T21:46:26.323Z,100432.09
2023-05-22T21:48:54.328Z,100433.75
2023-05-22T21:51:22.988Z,100441.97
2023-05-22T21:53:50.937Z,100437.50
2023-05-22T21:56:19.265Z,100434.59
2023-05-22T21:58:48.674Z,100443.09
2023-05-22T22:01:17.052Z,100439.66
2023-05-22T22:03:45.132Z,100437.88
2023-05-22T22:06:13.625Z,100439.13
2023-05-22T22:08:41.645Z,100427.84
2023-05-22T22:11:10.031Z,100433.19
2023-05-22T22:13:38.182Z,100430.84
2023-05-22T22:16:06.624Z,100425.94
2023-05-22T22:18:34.682Z,100426.97
2023-05-22T22:21:03.230Z,100427.13
2023-05-22T22:23:31.411Z,100434.53
2023-05-22T22:25:59.760Z,100429.31
2023-05-22T22:28:28.043Z,100424.38
2023-05-22T22:30:56.548Z,100429.69
2023-05-22T22:33:25.025Z,100427.69
2023-05-22T22:35:53.475Z,100434.59
2023-05-22T22:38:21.667Z,100419.81
2023-05-22T22:40:50.002Z,100420.03
2023-05-22T22:43:18.045Z,100417.69
2023-05-22T22:45:46.690Z,100418.16
2023-05-22T22:48:16.825Z,100419.03
2023-05-22T22:50:47.024Z,100412.88
2023-05-22T22:53:15.035Z,100416.47
2023-05-22T22:55:43.726Z,100415.06
2023-05-22T22:58:11.927Z,100413.06
2023-05-22T23:00:40.190Z,100414.59
2023-05-22T23:03:08.222Z,100410.19
2023-05-22T23:05:36.705Z,100423.94
2023-05-22T23:08:04.658Z,100419.31
2023-05-22T23:10:32.969Z,100415.88
2023-05-22T23:13:01.175Z,100415.81
2023-05-22T23:15:29.519Z,100414.22
2023-05-22T23:17:57.474Z,100419.50
2023-05-22T23:20:25.992Z,100417.03
2023-05-22T23:22:53.926Z,100413.22
2023-05-22T23:25:22.201Z,100416.72
2023-05-22T23:27:50.183Z,100416.94
2023-05-22T23:30:18.651Z,100414.09
2023-05-22T23:32:46.613Z,100413.72
2023-05-22T23:35:14.959Z,100422.44
2023-05-22T23:37:42.893Z,100410.06
2023-05-22T23:40:11.603Z,100410.97
2023-05-22T23:42:39.578Z,100411.72
2023-05-22T23:45:08.529Z,100409.25
2023-05-22T23:47:36.558Z,100410.91
2023-05-22T23:50:05.289Z,100411.34
2023-05-22T23:52:33.326Z,100408.22
2023-05-22T23:55:01.744Z,100411.34
2023-05-22T23:57:29.635Z,100406.00
2023-05-22T23:59:58.208Z,100408.69
